CDT,Max TemperatureF,Mean TemperatureF,Min TemperatureF,Max Dew PointF,MeanDew PointF,Min DewpointF,Max Humidity, Mean Humidity, Min Humidity, Max Sea Level PressureIn, Mean Sea Level PressureIn, Min Sea Level PressureIn, Max VisibilityMiles, Mean VisibilityMiles, Min VisibilityMiles, Max Wind SpeedMPH, Mean Wind SpeedMPH, Max Gust SpeedMPH,PrecipitationIn, CloudCover, Events, WindDirDegrees
2013-3-1,29,27,24,21,18,15,81,72,63,30.41,30.32,30.23,10,9,2,20,12,25,T,8,Snow,348
2013-3-2,33,27,20,24,18,14,78,66,54,30.40,30.30,30.11,10,9,7,12,6,14,0.00,6,,127
2013-3-3,38,32,26,27,24,20,81,73,64,30.12,29.92,29.76,10,8,6,24,14,29,0.00,6,,142
2013-3-4,44,37,30,30,27,23,82,71,59,30.05,29.84,29.69,10,9,2,21,10,24,T,5,Snow,14
2013-3-5,34,30,25,20,17,15,69,64,58,30.43,30.23,30.08,10,10,9,35,21,46,T,7,Snow,319
2013-3-6,38,29,20,23,19,15,84,66,48,30.48,30.40,30.30,10,10,10,17,8,22,0.00,4,,54
2013-3-7,49,36,23,28,23,18,81,64,46,30.32,30.23,30.13,10,10,10,22,14,25,0.00,5,,133
2013-3-8,53,42,31,37,31,24,82,66,50,30.22,30.10,29.93,10,9,5,28,14,32,0.15,5,Rain,142
2013-3-9,54,45,36,49,41,33,93,85,76,29.93,29.74,29.55,10,6,2,30,13,40,0.54,8,Rain-Thunderstorm,132
2013-3-10,36,30,23,34,26,19,92,87,81,29.98,29.85,29.71,10,2,0,33,24,45,0.67,8,Fog-Rain-Snow,343
2013-3-11,31,26,20,19,17,15,88,71,53,30.05,29.96,29.89,10,8,2,21,9,26,T,6,Snow,321
2013-3-12,33,25,17,23,20,15,84,73,61,30.37,30.20,30.06,10,9,7,31,15,37,T,5,,315
2013-3-13,36,26,15,22,17,12,92,66,40,30.50,30.41,30.29,10,9,7,14,7,17,0.00,3,Fog,104
2013-3-14,51,41,31,39,30,22,85,72,58,30.26,30.14,30.08,10,10,9,16,7,20,0.00,4,,119
2013-3-15,59,46,33,42,36,31,92,70,47,30.08,29.85,29.74,10,7,2,16,8,20,0.00,5,,40
2013-3-16,39,35,30,36,28,21,92,78,63,30.23,30.06,29.87,10,7,2,28,15,35,0.00,8,,3
2013-3-17,45,35,24,34,25,17,92,70,48,30.19,29.96,29.78,10,8,2,21,12,25,0.03,7,,116
2013-3-18,38,32,25,34,24,13,92,65,38,30.08,29.88,29.75,10,8,2,33,16,40,0.07,4,Rain-Snow,281
2013-3-19,51,35,19,23,16,12,74,52,29,30.37,30.19,30.09,10,10,10,28,9,31,0.00,3,,332
2013-3-20,35,25,15,14,8,3,68,49,29,30.45,30.34,30.17,10,10,10,24,12,33,0.00,1,,335
2013-3-21,33,27,20,17,12,10,68,53,38,30.15,30.06,29.97,10,10,10,14,7,17,0.00,8,,101
2013-3-22,35,30,25,22,17,16,68,56,44,30.07,30.04,30.01,10,10,10,13,5,16,0.00,8,,87
2013-3-23,39,34,28,28,24,20,92,70,48,30.15,30.10,30.04,10,6,0,18,10,23,0.03,8,Snow,24
2013-3-24,29,27,25,26,21,18,92,81,69,30.12,30.08,30.03,10,5,1,25,17,31,0.01,8,Snow,338
2013-3-25,32,28,23,25,21,18,92,78,63,30.39,30.22,30.08,10,6,2,24,15,31,0.02,8,Snow,331
2013-3-26,41,29,16,22,17,13,88,66,44,30.43,30.36,30.28,10,10,10,10,4,14,0.00,2,,227
2013-3-27,53,39,24,31,24,19,81,60,38,30.32,30.27,30.21,10,10,10,17,10,23,0.00,3,,136
2013-3-28,60,45,30,33,28,25,78,53,28,30.29,30.24,30.16,10,10,10,10,4,14,0.00,2,,131
2013-3-29,69,49,29,36,31,27,85,54,22,30.25,30.16,30.05,10,10,7,20,10,28,T,4,Rain,149
2013-3-30,68,55,42,51,43,35,93,63,32,30.07,29.95,29.90,10,10,5,22,9,29,0.16,6,Rain,309
2013-3-31,58,45,31,39,31,21,92,58,24,30.17,30.02,29.96,10,8,1,26,13,32,0.09,4,Rain-Snow,342